New Florence, MO

1:22 PM CDT on July 31, 2015 (GMT -0500)
Fry Subdivision | | Change Station
CLOSE
Current Station
Personal Weather Station
Location: New Florence, MO
Elevation: 850 ft
Nearby Weather Stations
Active Advisory: Flood Warning

Elev 850 ft 38.91 °N, 91.44 °W | Updated 2 minutes ago

Clear
Clear
92.3 °F
Feels Like 99 °F
N
0.0
Wind Variable Wind from WNW

Today
High -- | Low -- °F
--% Chance of Precip.
Yesterday
High -- | Low -- °F
Precip. -- in
6:05 AM 8:18 PM
Full, 100% visible
Pressure 30.09 in
Visibility 10.0 miles
Clouds Clear
Heat Index 99 °F
Dew Point 70 °F
Humidity 49%
Rainfall 0.00 in
Snow Depth Not available.
UV 11 out of 12
Pollen 6.70 out of 12
Air Quality Not available.
Flu Activity Not available.
METAR KFYG 311815Z AUTO 00000KT 10SM CLR 31/19 A3009 RMK AO2

More Conditions Fewer Conditions

Pressure 30.09 in
Visibility 10.0 miles
Clouds Clear
Heat Index 99 °F
Dew Point 70 °F
Humidity 49%
Rainfall 0.00 in
Snow Depth Not available.
UV 11 out of 12
Pollen 6.70 out of 12
Air Quality Not available.
Flu Activity Not available.
METAR KFYG 311815Z AUTO 00000KT 10SM CLR 31/19 A3009 RMK AO2

More Conditions Fewer Conditions

10-Day Weather Forecast

×

Almanac

Astronomy

Jul. 31, 2015 Rise Set
Actual Time
Civil Twilight
Nautical Twilight
Astronomical Twilight
Moon
Length of Visible Light
Length of Day
Tomorrow will be .
, % of the Moon is Illuminated

Today's Extremes

State Highs State Lows

Community

WunderPhotos

Upload Photos

1,842,707 photos uploaded!

WunderBlogs® & News

Nearby

Air Quality

  Air Quality AQ Index Pollutant
Not available.

Snow Depth

Station Depth Elevation

Earthquake Activity

City Distance Mag. Time & Date
Minimum magnitude displayed is 2.5.

Coastal Water Temperatures

Place Temperature

Stations

Nearby Weather Stations

Station Location Temp. Windchill Dew Point Humidity Wind Precip. Elev Updated Type
                   
Flood Warning
Statement as of 10:45 AM CDT on July 31, 2015

The National Weather Service in St. Louis has issued a

* Flood Warning for
the Missouri River at Gasconade
* from Saturday morning to Wednesday evening.
* At 9:30 am Monday the stage was 20.8 feet.
* Flood stage is 22.0 feet.
* Minor flooding is forecast.
* The river is forecast to rise above flood stage by late Saturday
morning and continue to rise to near 23.2 feet by Sunday evening.
The river will fall below flood stage by late Tuesday morning.
* Impact: at 22.4 feet... Gasconade park boat ramp... bbq grills... and
parking area begins flooding near this height.

                   Fld latest 7 a.M. Forecast
location stg obs stg 08/01 08/02 08/03 08/04 08/05

Missouri River
Gasconade 22.0 20.80 21.9 22.9 23.1 22.2 19.8




Lat... Lon 3873 9164 3868 9164 3866 9156 3869 9150
      3872 9150